Aérodrome :
LOGIN :

S'inscrire | Disclaimer

   EN    FR    IT 

 










Légende :    VFR   VFR Marginal   IFR   IFR Intensif   IFR Très Intensif
Visi : 
Plafond : 
>= 8 km
>= 3000ft
5 à 8 km
1000 à 3000 ft
1500m à 5 km
500 à 1000 ft
800 à 1500m
200 à 500 ft
< 800m
< 200 ft
Symboles :   Orages  Brouillard  Fortes neiges  Fortes précipitations  Vent > 20 kt
SIGMETs :   Divers  Orages  Givrage  Turbulence  Onde Orograph.  Cendres Volcan.







- Altitude de l'aérodrome : 659 ft
- Code IATA : LGG


EBLG - Liège

DERNIER METAR :
  • 220550Z 24018KT 7000 -DZ FEW006 BKN008 09/07 Q1010 TEMPO 2500 RADZ

METARs EXPIRÉS :
  • 220520Z 23019KT 6000 -DZ FEW006 BKN008 09/07 Q1010 TEMPO 2500 RADZ
  • 220450Z 23020KT 9999 FEW006 BKN009 09/07 Q1010 TEMPO 2500 RADZ
  • 220420Z 23018KT 5000 -DZ FEW006 BKN009 09/07 Q1011 TEMPO 2500 RADZ
  • 220350Z 23017KT 3500 -DZ FEW005 BKN008 09/07 Q1011 TEMPO 1800 RADZ
  • 220320Z 24016KT 2600 -DZ FEW005 BKN006 09/08 Q1011 TEMPO 1800 RADZ

TAF TAF EBLG
Valide du 22 à 06h jusqu'au 23 à 12h UTC


220510Z 2206/2312 24016G28KT 9999 SCT006 BKN011
PROB40
TEMPO 2206/2312 2000 DZ DZRA BKN005
Pas de NOTAMs connus pour ce terrain.
1 SIGMET publié pour la FIR Brussels (EBBU) :
 
Turbulence forte
EBBU SIGMET 01 VALID 220400/220700 EBBR
EBBU BRUSSELS FIR SEV TURB FCST W OF LINE N5115 E00400 - N5045 E00330 SFC/FL050 MOV E15KT WKN=



MET'MAP, la Météo Aéronautique d'un coup d'oeil ! - Copyright ORBIFLY Décembre 2007 - Disclaimer

ORBIFLY MET'MAP TEAM :

Programmation & Développement : Alexandra Zaïnal
Conception & Développement : Baudouin d'Aumeries
Co-Programmation & Développement : Marc-Olivier Méhu
Soutien technique & logistique : Manuel Goepfert

Contact : metmap@orbifly.com




SOURCES & CREDITS :

   NOAA